Time;durP1;ratioP1;P1;durP2;ratioP2;P2;SDS_P1;SDS_P2;PMS_P1;PMS_P2;Temp;Humidity;BMP_temperature;BMP_pressure;BME280_temperature;BME280_humidity;BME280_pressure;Samples;Min_cycle;Max_cycle;Signal;HPM_P1;HPM_P2
2020/12/12 00:01:48;;;;;;;16.97;10.85;;;;;;;-1.89;74.87;100449.00;1815624;79;21043;-70
2020/12/12 00:04:16;;;;;;;17.50;12.40;;;;;;;-1.90;74.76;100453.34;1806039;79;21064;-70
2020/12/12 00:06:44;;;;;;;16.07;10.95;;;;;;;-1.90;74.70;100460.25;1791028;79;21103;-71
2020/12/12 00:09:15;;;;;;;15.90;11.43;;;;;;;-1.92;74.62;100456.42;1814190;79;22066;-70
2020/12/12 00:11:43;;;;;;;18.15;12.13;;;;;;;-1.92;74.53;100456.87;1778282;79;21150;-71
2020/12/12 00:14:11;;;;;;;19.80;13.13;;;;;;;-1.93;74.45;100459.02;1782031;79;21055;-71
2020/12/12 00:16:38;;;;;;;20.57;13.30;;;;;;;-1.93;74.43;100453.42;1807132;79;21058;-70
2020/12/12 00:19:06;;;;;;;19.87;11.05;;;;;;;-1.93;74.39;100453.42;1753879;80;21099;-71
2020/12/12 00:21:34;;;;;;;16.82;11.53;;;;;;;-1.94;74.29;100450.86;1782295;79;21847;-71
2020/12/12 00:24:02;;;;;;;16.82;11.10;;;;;;;-1.94;74.26;100454.29;1783518;80;21126;-70
2020/12/12 00:26:30;;;;;;;16.85;10.95;;;;;;;-1.94;74.21;100446.97;1794755;79;21086;-70
2020/12/12 00:28:58;;;;;;;17.05;10.63;;;;;;;-1.96;74.19;100443.13;1783549;80;21067;-71
2020/12/12 00:31:25;;;;;;;19.42;11.97;;;;;;;-1.95;74.15;100442.23;1786251;79;21549;-71
2020/12/12 00:33:53;;;;;;;17.65;11.10;;;;;;;-1.98;74.06;100441.04;1767385;79;22080;-70
2020/12/12 00:36:21;;;;;;;18.10;11.75;;;;;;;-2.03;73.98;100435.12;1779986;79;21187;-71
2020/12/12 00:38:49;;;;;;;16.37;11.48;;;;;;;-2.09;73.97;100442.62;1767460;79;21078;-71
2020/12/12 00:41:17;;;;;;;16.85;11.28;;;;;;;-2.10;73.97;100440.93;1766650;79;21068;-71
2020/12/12 00:43:45;;;;;;;16.05;10.55;;;;;;;-2.12;73.87;100437.98;1779140;79;21053;-71
2020/12/12 00:46:13;;;;;;;16.67;10.35;;;;;;;-2.14;73.87;100430.68;1798004;79;22047;-71
2020/12/12 00:48:40;;;;;;;17.67;9.93;;;;;;;-2.14;73.83;100437.16;1789817;79;21068;-71
2020/12/12 00:51:08;;;;;;;12.53;8.25;;;;;;;-2.15;73.80;100429.84;1799203;79;21052;-70
2020/12/12 00:53:36;;;;;;;16.85;9.85;;;;;;;-2.15;73.76;100426.40;1798873;79;21049;-70
2020/12/12 00:56:03;;;;;;;17.82;10.68;;;;;;;-2.17;73.72;100423.86;1798657;79;21591;-70
2020/12/12 00:58:31;;;;;;;16.97;11.55;;;;;;;-2.19;73.62;100416.59;1777831;79;22123;-71
2020/12/12 01:00:59;;;;;;;17.15;10.15;;;;;;;-2.20;73.55;100409.72;1765962;81;21539;-70
2020/12/12 01:03:27;;;;;;;17.57;10.65;;;;;;;-2.22;73.50;100416.68;1768603;78;21064;-71
2020/12/12 01:05:56;;;;;;;12.88;9.18;;;;;;;-2.24;73.42;100415.00;1768611;79;21128;-70
2020/12/12 01:08:25;;;;;;;18.48;11.20;;;;;;;-2.27;73.37;100413.80;1783997;79;21135;-70
2020/12/12 01:10:54;;;;;;;16.57;9.58;;;;;;;-2.29;73.32;100402.20;1767658;81;22138;-70
2020/12/12 01:13:21;;;;;;;16.40;11.53;;;;;;;-2.30;73.28;100409.56;1767740;79;21179;-70
2020/12/12 01:15:51;;;;;;;16.93;10.70;;;;;;;-2.31;73.25;100411.30;1791596;79;21065;-71
2020/12/12 01:18:19;;;;;;;12.60;8.65;;;;;;;-2.32;73.16;100410.02;1790716;79;21124;-70
2020/12/12 01:20:46;;;;;;;17.98;9.98;;;;;;;-2.36;73.01;100407.13;1799162;79;21060;-71
2020/12/12 01:23:14;;;;;;;17.32;10.85;;;;;;;-2.39;73.01;100409.80;1798307;79;22956;-71
2020/12/12 01:25:42;;;;;;;15.45;10.40;;;;;;;-2.41;72.99;100398.20;1768511;79;21135;-71
2020/12/12 01:28:10;;;;;;;13.40;8.43;;;;;;;-2.40;72.94;100398.60;1798491;79;21049;-70
2020/12/12 01:30:38;;;;;;;15.08;9.40;;;;;;;-2.43;72.88;100398.66;1798323;79;21067;-70
2020/12/12 01:33:06;;;;;;;15.65;10.35;;;;;;;-2.44;72.83;100406.02;1799192;79;21061;-69
2020/12/12 01:35:34;;;;;;;14.10;9.20;;;;;;;-2.45;72.84;100408.65;1790080;78;22068;-70
2020/12/12 01:38:01;;;;;;;13.78;9.33;;;;;;;-2.46;72.85;100411.68;1775457;80;21583;-70
2020/12/12 01:40:29;;;;;;;17.10;11.35;;;;;;;-2.47;72.80;100407.40;1721250;82;21063;-70
2020/12/12 01:42:57;;;;;;;17.20;10.20;;;;;;;-2.47;72.83;100407.40;1719202;82;21074;-69
2020/12/12 01:45:24;;;;;;;13.93;8.88;;;;;;;-2.48;72.82;100395.80;1719543;83;21130;-69
2020/12/12 01:47:52;;;;;;;19.07;11.25;;;;;;;-2.50;72.73;100404.91;1716051;83;21913;-70
2020/12/12 01:50:20;;;;;;;15.72;10.80;;;;;;;-2.52;72.70;100401.92;1695552;83;21152;-70
2020/12/12 01:52:51;;;;;;;14.58;9.50;;;;;;;-2.54;72.71;100398.09;1709171;83;21110;-69
2020/12/12 01:55:22;;;;;;;14.95;9.88;;;;;;;-2.52;72.75;100404.52;1719242;83;21042;-70
2020/12/12 01:57:54;;;;;;;15.18;10.43;;;;;;;-2.51;72.70;100398.45;1714834;82;21117;-70
2020/12/12 02:00:23;;;;;;;21.20;11.38;;;;;;;-2.58;72.62;100395.19;1707237;83;22043;-70
2020/12/12 02:02:56;;;;;;;13.13;9.98;;;;;;;-2.63;72.61;100391.86;1719244;83;21575;-69
2020/12/12 02:05:39;;;;;;;17.62;11.55;;;;;;;-2.64;72.68;100392.75;1719275;83;21113;-69
2020/12/12 02:08:15;;;;;;;13.93;9.27;;;;;;;-2.64;72.65;100396.63;1718876;83;21078;-70
2020/12/12 02:10:47;;;;;;;17.92;10.20;;;;;;;-2.66;72.61;100394.08;1705195;82;21117;-71
2020/12/12 02:13:17;;;;;;;18.37;10.40;;;;;;;-2.67;72.53;100394.13;1705565;83;22068;-70
2020/12/12 02:15:45;;;;;;;14.68;9.55;;;;;;;-2.70;72.42;100395.06;1692670;83;21173;-70
2020/12/12 02:18:23;;;;;;;15.40;9.58;;;;;;;-2.73;72.38;100394.27;1700969;83;21125;-69
2020/12/12 02:21:00;;;;;;;13.55;9.08;;;;;;;-2.77;72.37;100392.21;1717403;83;21065;-70
2020/12/12 02:23:28;;;;;;;16.50;10.10;;;;;;;-2.79;72.41;100395.73;1717489;82;21480;-69
2020/12/12 02:25:56;;;;;;;15.83;10.23;;;;;;;-2.79;72.39;100398.31;1719415;83;21591;-70
2020/12/12 02:28:27;;;;;;;16.60;11.70;;;;;;;-2.81;72.38;100395.73;1719057;83;21145;-70
2020/12/12 02:30:53;;;;;;;17.07;11.45;;;;;;;-2.80;72.41;100396.59;1700782;83;21252;-70
2020/12/12 02:33:21;;;;;;;13.45;8.85;;;;;;;-2.78;72.42;100394.40;1690901;83;21081;-69
2020/12/12 02:35:49;;;;;;;18.27;10.93;;;;;;;-2.76;72.40;100393.06;1706836;82;21081;-69
2020/12/12 02:38:16;;;;;;;16.60;9.83;;;;;;;-2.77;72.32;100390.92;1738811;81;22051;-70
2020/12/12 02:40:44;;;;;;;18.60;10.15;;;;;;;-2.76;72.29;100402.11;1798976;79;21569;-70
2020/12/12 02:43:12;;;;;;;17.07;11.08;;;;;;;-2.77;72.18;100396.53;1810678;79;21127;-72
2020/12/12 02:45:45;;;;;;;16.95;9.33;;;;;;;-2.80;72.14;100397.88;1815786;79;21071;-69
2020/12/12 02:48:14;;;;;;;15.48;9.60;;;;;;;-2.80;72.19;100401.76;1806712;79;21526;-70
2020/12/12 02:50:42;;;;;;;20.00;10.55;;;;;;;-2.81;72.09;100391.02;1781984;80;22060;-72
2020/12/12 02:53:10;;;;;;;17.02;9.95;;;;;;;-2.82;72.04;100392.75;1785183;79;21258;-70
2020/12/12 02:55:38;;;;;;;13.20;8.83;;;;;;;-2.81;72.03;100392.31;1807329;79;21051;-70
2020/12/12 02:58:07;;;;;;;18.92;10.23;;;;;;;-2.82;72.00;100388.88;1806483;79;21063;-69
2020/12/12 03:00:34;;;;;;;19.15;11.48;;;;;;;-2.83;71.92;100390.21;1790929;78;21099;-70
2020/12/12 03:03:03;;;;;;;11.80;8.13;;;;;;;-2.82;71.95;100376.39;1813080;78;22935;-70
2020/12/12 03:05:31;;;;;;;13.28;9.10;;;;;;;-2.82;71.94;100373.81;1814158;79;21071;-71
2020/12/12 03:07:59;;;;;;;17.65;10.53;;;;;;;-2.83;71.90;100372.97;1814814;78;21098;-71
2020/12/12 03:10:26;;;;;;;15.23;10.15;;;;;;;-2.84;71.90;100368.69;1815720;79;21066;-70
2020/12/12 03:12:54;;;;;;;16.62;10.85;;;;;;;-2.87;71.83;100379.11;1798299;79;20957;-69
2020/12/12 03:15:21;;;;;;;16.30;9.70;;;;;;;-2.88;71.75;100381.29;1813290;79;22040;-70
2020/12/12 03:17:49;;;;;;;18.42;9.63;;;;;;;-2.91;71.64;100378.76;1811869;79;21071;-71
2020/12/12 03:20:16;;;;;;;14.45;9.00;;;;;;;-2.94;71.57;100386.16;1784032;78;21075;-70
2020/12/12 03:22:44;;;;;;;13.70;8.53;;;;;;;-2.96;71.50;100381.47;1814106;79;21118;-70
2020/12/12 03:25:12;;;;;;;17.37;10.93;;;;;;;-2.96;71.52;100383.20;1794266;79;21151;-71
2020/12/12 03:27:39;;;;;;;16.90;11.73;;;;;;;-2.97;71.53;100374.61;1783879;79;22050;-70
2020/12/12 03:30:07;;;;;;;17.55;10.72;;;;;;;-2.96;71.54;100375.01;1812926;79;21148;-71
2020/12/12 03:32:35;;;;;;;10.65;7.40;;;;;;;-2.95;71.56;100377.15;1799729;79;21107;-71
2020/12/12 03:35:04;;;;;;;16.32;11.28;;;;;;;-2.95;71.60;100373.27;1808794;78;21584;-71
2020/12/12 03:37:31;;;;;;;21.52;10.98;;;;;;;-2.97;71.62;100371.17;1764954;80;21135;-71
2020/12/12 03:39:59;;;;;;;16.55;10.40;;;;;;;-2.99;71.58;100368.64;1773057;80;22069;-71
2020/12/12 03:42:27;;;;;;;15.95;10.45;;;;;;;-3.00;71.56;100364.77;1791277;78;21068;-71
2020/12/12 03:44:54;;;;;;;14.70;9.30;;;;;;;-3.03;71.61;100368.28;1786375;80;21148;-71
2020/12/12 03:47:22;;;;;;;14.87;11.00;;;;;;;-3.05;71.56;100362.75;1791422;80;21152;-71
2020/12/12 03:49:50;;;;;;;14.83;9.25;;;;;;;-3.08;71.61;100361.10;1790507;80;21073;-71
2020/12/12 03:52:18;;;;;;;13.18;8.80;;;;;;;-3.08;71.64;100362.39;1791649;80;21882;-71
2020/12/12 03:54:46;;;;;;;14.07;9.48;;;;;;;-3.08;71.62;100363.69;1789669;78;21195;-70
2020/12/12 03:57:14;;;;;;;15.00;10.00;;;;;;;-3.08;71.65;100367.56;1788278;80;21235;-70
2020/12/12 03:59:42;;;;;;;13.93;8.55;;;;;;;-3.09;71.64;100359.37;1791331;80;21175;-70
2020/12/12 04:02:10;;;;;;;15.48;8.73;;;;;;;-3.10;71.68;100356.39;1781125;78;21057;-70
2020/12/12 04:04:38;;;;;;;15.25;8.88;;;;;;;-3.11;71.74;100346.09;1760377;81;22075;-70
2020/12/12 04:07:06;;;;;;;11.65;7.97;;;;;;;-3.12;71.77;100354.30;1774640;80;21120;-70
2020/12/12 04:09:34;;;;;;;17.40;10.95;;;;;;;-3.12;71.81;100351.70;1787816;79;21137;-70
2020/12/12 04:12:02;;;;;;;16.27;11.18;;;;;;;-3.13;71.89;100342.27;1791400;80;21603;-70
2020/12/12 04:14:30;;;;;;;16.52;10.28;;;;;;;-3.14;71.95;100347.03;1790478;80;21060;-70
2020/12/12 04:16:58;;;;;;;14.75;9.48;;;;;;;-3.13;71.98;100346.58;1784948;80;22283;-70
2020/12/12 04:19:26;;;;;;;14.28;9.08;;;;;;;-3.12;72.02;100338.79;1782482;80;21080;-70
2020/12/12 04:21:54;;;;;;;14.38;8.10;;;;;;;-3.13;72.03;100346.14;1783228;80;21125;-70
2020/12/12 04:24:22;;;;;;;12.68;8.55;;;;;;;-3.13;71.99;100347.43;1759412;80;21163;-70
2020/12/12 04:26:49;;;;;;;12.63;9.23;;;;;;;-3.14;71.98;100350.91;1760360;81;21053;-70
2020/12/12 04:29:17;;;;;;;17.30;10.20;;;;;;;-3.15;71.96;100349.20;1779674;80;22113;-70
2020/12/12 04:31:45;;;;;;;15.03;9.30;;;;;;;-3.15;72.01;100350.50;1761174;80;21143;-70
2020/12/12 04:34:13;;;;;;;16.00;8.63;;;;;;;-3.15;71.99;100345.78;1760507;80;21144;-70
2020/12/12 04:36:42;;;;;;;15.13;10.98;;;;;;;-3.14;71.99;100351.34;1760010;80;21142;-70
2020/12/12 04:39:10;;;;;;;14.68;10.18;;;;;;;-3.14;72.05;100357.80;1769307;80;21070;-70
2020/12/12 04:41:37;;;;;;;17.23;10.70;;;;;;;-3.14;72.03;100347.03;1747867;80;21583;-70
2020/12/12 04:44:05;;;;;;;16.52;9.80;;;;;;;-3.19;72.05;100352.28;1749001;82;21133;-70
2020/12/12 04:46:33;;;;;;;14.63;10.72;;;;;;;-3.21;72.11;100345.46;1733776;80;21153;-70
2020/12/12 04:49:01;;;;;;;16.48;11.15;;;;;;;-3.22;72.15;100344.62;1776288;80;21062;-70
2020/12/12 04:51:29;;;;;;;17.10;10.95;;;;;;;-3.21;72.15;100341.59;1779992;80;21318;-70
2020/12/12 04:53:58;;;;;;;17.87;11.22;;;;;;;-3.21;72.21;100337.27;1753789;80;22850;-70
2020/12/12 04:56:26;;;;;;;20.20;11.05;;;;;;;-3.22;72.22;100340.74;1753098;80;21157;-70
2020/12/12 04:58:54;;;;;;;17.67;11.55;;;;;;;-3.21;72.20;100337.27;1779669;80;21551;-70
2020/12/12 05:01:22;;;;;;;19.73;11.18;;;;;;;-3.21;72.15;100338.56;1777325;80;21184;-70
2020/12/12 05:03:50;;;;;;;16.45;10.30;;;;;;;-3.23;72.16;100334.33;1779027;80;21338;-70
2020/12/12 05:06:17;;;;;;;16.95;9.43;;;;;;;-3.24;72.18;100341.67;1723787;82;23139;-70
2020/12/12 05:08:45;;;;;;;16.57;10.48;;;;;;;-3.26;72.13;100336.99;1749019;81;21128;-70
2020/12/12 05:11:14;;;;;;;16.05;10.15;;;;;;;-3.25;72.13;100336.10;1769949;80;21116;-70
2020/12/12 05:13:42;;;;;;;18.80;11.55;;;;;;;-3.27;72.11;100343.05;1728660;80;21200;-70
2020/12/12 05:16:09;;;;;;;14.20;9.60;;;;;;;-3.29;72.14;100333.17;1655891;84;21070;-70
2020/12/12 05:18:37;;;;;;;19.92;12.10;;;;;;;-3.30;72.11;100333.61;1708076;84;21908;-70
2020/12/12 05:21:06;;;;;;;19.37;11.75;;;;;;;-3.30;72.04;100332.77;1676424;85;21149;-70
2020/12/12 05:23:33;;;;;;;21.33;12.03;;;;;;;-3.29;72.06;100338.33;1717378;83;21106;-70
2020/12/12 05:26:01;;;;;;;17.65;10.40;;;;;;;-3.27;72.03;100336.59;1669843;83;21073;-70
2020/12/12 05:28:29;;;;;;;18.85;11.63;;;;;;;-3.25;72.06;100334.81;1690694;84;21062;-70
2020/12/12 05:30:57;;;;;;;17.20;9.68;;;;;;;-3.26;72.02;100336.55;1698466;83;22119;-70
2020/12/12 05:33:26;;;;;;;14.35;9.43;;;;;;;-3.26;71.98;100330.09;1693133;83;21125;-71
2020/12/12 05:35:55;;;;;;;19.98;11.05;;;;;;;-3.24;71.90;100333.92;1699166;82;21129;-71
2020/12/12 05:38:23;;;;;;;20.50;11.30;;;;;;;-3.23;71.88;100338.20;1736992;81;21132;-71
2020/12/12 05:40:55;;;;;;;22.70;12.20;;;;;;;-3.23;71.89;100332.59;1736981;82;21495;-71
2020/12/12 05:43:33;;;;;;;16.67;9.95;;;;;;;-3.23;71.88;100339.05;1720636;82;22072;-71
2020/12/12 05:46:01;;;;;;;16.95;9.75;;;;;;;-3.20;71.88;100332.95;1759254;81;21078;-70
2020/12/12 05:48:29;;;;;;;16.62;10.60;;;;;;;-3.19;71.87;100325.61;1765103;81;21123;-70
2020/12/12 05:50:57;;;;;;;18.85;11.18;;;;;;;-3.19;71.89;100323.88;1767321;81;21091;-70
2020/12/12 05:53:25;;;;;;;15.83;10.05;;;;;;;-3.19;71.94;100329.03;1747654;81;21110;-73
2020/12/12 05:55:55;;;;;;;21.55;11.22;;;;;;;-3.19;71.97;100323.02;1757119;81;22946;-70
2020/12/12 05:58:24;;;;;;;21.70;10.82;;;;;;;-3.20;71.98;100329.92;1745499;81;21580;-71
2020/12/12 06:00:52;;;;;;;20.23;11.95;;;;;;;-3.17;72.01;100327.73;1757344;81;21197;-70
2020/12/12 06:03:33;;;;;;;19.40;11.73;;;;;;;-3.17;71.99;100313.08;1739006;81;21178;-70
2020/12/12 06:06:05;;;;;;;22.30;11.25;;;;;;;-3.14;71.96;100321.64;1750599;81;21063;-71
2020/12/12 06:08:36;;;;;;;20.37;10.40;;;;;;;-3.14;71.98;100310.02;1763199;81;21565;-69
2020/12/12 06:11:08;;;;;;;21.68;10.75;;;;;;;-3.14;71.99;100319.90;1765482;81;21134;-70
2020/12/12 06:13:38;;;;;;;19.42;10.65;;;;;;;-3.14;71.95;100317.31;1725908;81;21126;-69
2020/12/12 06:16:07;;;;;;;17.45;10.38;;;;;;;-3.13;71.97;100325.47;1751726;81;21538;-69
2020/12/12 06:19:00;;;;;;;15.32;9.83;;;;;;;-3.12;72.03;100322.44;1753632;81;21118;-70
2020/12/12 06:21:41;;;;;;;21.23;10.85;;;;;;;-3.13;71.96;100327.20;1887066;74;27206;-70
2020/12/12 06:24:16;;;;;;;20.80;11.55;;;;;;;-3.21;71.98;100337.72;1832515;77;21107;-70
2020/12/12 06:26:57;;;;;;;19.48;12.03;;;;;;;-3.21;72.05;100331.26;1828322;77;22060;-68
2020/12/12 06:29:28;;;;;;;20.88;10.95;;;;;;;-3.18;72.06;100331.20;1833081;77;21587;-69
2020/12/12 06:31:56;;;;;;;20.85;11.70;;;;;;;-3.19;72.08;100327.74;1842413;76;21379;-68
2020/12/12 06:34:50;;;;;;;18.32;10.05;;;;;;;-3.16;72.05;100322.97;1794607;79;21038;-68
2020/12/12 06:37:33;;;;;;;14.07;7.72;;;;;;;-3.14;72.10;100325.52;1757997;80;21145;-68
2020/12/12 06:40:12;;;;;;;22.13;11.23;;;;;;;-3.10;72.04;100316.34;1889947;75;28236;-73
2020/12/12 06:42:42;;;;;;;21.90;11.75;;;;;;;-3.15;71.89;100309.17;1842276;77;21153;-69
2020/12/12 06:45:24;;;;;;;19.77;10.58;;;;;;;-3.22;71.82;100317.94;1801143;77;22939;-67
2020/12/12 06:47:53;;;;;;;20.27;12.00;;;;;;;-3.25;71.89;100315.44;1812860;78;21212;-69
2020/12/12 06:50:31;;;;;;;17.67;10.00;;;;;;;-3.25;71.95;100319.31;1801777;78;21533;-69
2020/12/12 06:52:56;;;;;;;17.17;10.20;;;;;;;-3.22;71.98;100319.23;1813475;78;21093;-69
2020/12/12 06:55:24;;;;;;;19.48;10.90;;;;;;;-3.19;72.05;100325.16;1834173;77;21547;-70
2020/12/12 06:57:58;;;;;;;19.65;11.65;;;;;;;-3.17;71.97;100314.38;1825141;78;22060;-71
2020/12/12 07:00:33;;;;;;;19.15;11.00;;;;;;;-3.14;71.95;100319.05;1788425;80;21074;-69
2020/12/12 07:03:04;;;;;;;15.68;9.20;;;;;;;-3.16;71.88;100328.14;1754908;80;21166;-72
2020/12/12 07:05:35;;;;;;;20.40;10.03;;;;;;;-3.17;71.92;100316.11;1751241;80;21141;-76
2020/12/12 07:08:06;;;;;;;24.10;11.22;;;;;;;-3.17;71.88;100315.66;1757354;81;21122;-73
2020/12/12 07:10:40;;;;;;;18.65;10.68;;;;;;;-3.16;71.91;100316.52;1743948;81;22078;-72
2020/12/12 07:13:09;;;;;;;21.60;11.73;;;;;;;-3.14;71.95;100314.73;1737782;81;21211;-72
2020/12/12 07:15:37;;;;;;;20.23;11.25;;;;;;;-3.12;71.94;100316.83;1768533;80;21050;-72
2020/12/12 07:18:11;;;;;;;23.30;12.35;;;;;;;-3.10;71.92;100318.08;1777760;80;22675;-71
2020/12/12 07:20:45;;;;;;;21.77;11.73;;;;;;;-3.11;71.93;100329.30;1727010;81;21089;-72
2020/12/12 07:23:13;;;;;;;23.18;11.53;;;;;;;-3.11;71.98;100327.56;1764523;81;22064;-70
2020/12/12 07:25:42;;;;;;;20.45;11.25;;;;;;;-3.11;72.00;100322.40;1747368;81;21293;-73
2020/12/12 07:28:10;;;;;;;22.00;11.70;;;;;;;-3.12;72.09;100323.29;1782296;79;21187;-71
2020/12/12 07:30:38;;;;;;;26.27;13.28;;;;;;;-3.10;72.16;100321.95;1776475;79;21114;-71
2020/12/12 07:33:06;;;;;;;20.35;10.82;;;;;;;-3.11;72.21;100319.81;1753305;81;21041;-71
2020/12/12 07:35:34;;;;;;;22.00;12.88;;;;;;;-3.08;72.24;100324.08;1787024;80;22132;-71
2020/12/12 07:38:05;;;;;;;18.40;10.18;;;;;;;-3.06;72.26;100317.98;1787798;80;22517;-70
2020/12/12 07:40:34;;;;;;;21.95;10.75;;;;;;;-3.06;72.27;100320.56;1751067;81;21574;-72
2020/12/12 07:43:08;;;;;;;20.00;11.00;;;;;;;-3.06;72.27;100323.16;1725868;83;21564;-72
2020/12/12 07:46:01;;;;;;;18.77;9.98;;;;;;;-3.06;72.26;100315.40;1722414;83;21062;-72
2020/12/12 07:48:24;;;;;;;21.87;12.28;;;;;;;-3.05;72.27;100307.20;1773249;78;21994;-71
2020/12/12 07:50:52;;;;;;;21.75;12.18;;;;;;;-3.05;72.25;100310.63;1756701;81;21129;-72
2020/12/12 07:53:21;;;;;;;21.85;11.80;;;;;;;-3.04;72.28;100298.56;1784957;79;21079;-71
2020/12/12 07:55:55;;;;;;;22.67;12.90;;;;;;;-3.02;72.26;100307.12;1789321;80;21503;-71
2020/12/12 07:58:27;;;;;;;26.42;13.03;;;;;;;-3.01;72.25;100310.95;1784700;80;21119;-71
2020/12/12 08:01:04;;;;;;;26.37;12.78;;;;;;;-3.00;72.24;100308.77;1759205;78;22016;-71
2020/12/12 08:03:34;;;;;;;26.50;13.00;;;;;;;-3.00;72.22;100302.31;1776168;80;21115;-71
2020/12/12 08:06:08;;;;;;;18.15;9.00;;;;;;;-2.99;72.10;100300.57;1705374;81;21151;-71
2020/12/12 08:08:37;;;;;;;20.68;9.78;;;;;;;-3.02;72.01;100305.83;1790025;80;21069;-72
2020/12/12 08:11:07;;;;;;;20.15;10.25;;;;;;;-3.06;72.05;100302.48;1783809;78;21355;-71
2020/12/12 08:13:37;;;;;;;18.50;9.18;;;;;;;-3.07;72.12;100300.79;1810566;78;22943;-72
2020/12/12 08:19:04;;;;;;;23.77;11.93;;;;;;;-3.02;72.21;100300.21;1872491;76;27432;-67
2020/12/12 08:21:32;;;;;;;19.95;10.40;;;;;;;-3.06;72.19;100304.22;1826823;76;21030;-67
2020/12/12 08:24:06;;;;;;;22.17;11.85;;;;;;;-3.07;72.10;100295.63;1828880;78;21813;-67
2020/12/12 08:26:35;;;;;;;15.83;7.42;;;;;;;-3.10;72.09;100304.72;1835370;78;21052;-67
2020/12/12 08:29:04;;;;;;;20.85;9.98;;;;;;;-3.10;72.17;100303.87;1840314;78;21467;-67
2020/12/12 08:31:39;;;;;;;23.00;10.45;;;;;;;-3.13;72.16;100290.59;1841460;77;21047;-66
2020/12/12 08:34:08;;;;;;;21.12;11.85;;;;;;;-3.14;72.17;100300.97;1841480;78;21103;-66
2020/12/12 08:36:37;;;;;;;16.65;9.33;;;;;;;-3.15;72.21;100294.95;1821315;78;21878;-67
2020/12/12 08:39:06;;;;;;;19.77;11.18;;;;;;;-3.14;72.24;100301.81;1808378;79;21075;-67
2020/12/12 08:41:37;;;;;;;22.65;11.20;;;;;;;-3.13;72.25;100291.04;1808430;79;21060;-69
2020/12/12 08:44:06;;;;;;;19.02;10.10;;;;;;;-3.12;72.28;100294.02;1808394;78;21048;-70
2020/12/12 08:46:34;;;;;;;22.37;10.23;;;;;;;-3.11;72.36;100291.84;1795306;78;21036;-68
2020/12/12 08:49:04;;;;;;;29.80;12.63;;;;;;;-3.09;72.36;100291.36;1798367;79;22038;-69
2020/12/12 08:51:32;;;;;;;21.35;11.18;;;;;;;-3.08;72.42;100291.34;1755154;79;21068;-68
2020/12/12 08:54:00;;;;;;;20.88;11.95;;;;;;;-3.07;72.39;100288.31;1808077;79;21408;-69
2020/12/12 08:56:29;;;;;;;20.43;11.05;;;;;;;-3.09;72.34;100289.62;1806228;79;21617;-69
2020/12/12 08:59:06;;;;;;;22.67;12.50;;;;;;;-3.06;72.36;100292.14;1778535;79;21155;-69
2020/12/12 09:01:44;;;;;;;18.65;9.98;;;;;;;-3.05;72.36;100277.49;1776917;79;22041;-70
2020/12/12 09:04:17;;;;;;;18.52;9.58;;;;;;;-3.02;72.36;100283.86;1776528;80;21060;-69
2020/12/12 09:07:00;;;;;;;20.02;8.18;;;;;;;-3.04;72.25;100283.91;1776818;80;21063;-69
2020/12/12 09:09:31;;;;;;;19.05;11.50;;;;;;;-3.06;72.24;100285.69;1776494;80;21107;-71
2020/12/12 09:12:08;;;;;;;21.95;11.05;;;;;;;-3.06;72.27;100279.23;1776579;80;21186;-70
2020/12/12 09:14:38;;;;;;;21.35;10.68;;;;;;;-3.07;72.27;100272.81;1782516;79;22053;-68
2020/12/12 09:17:09;;;;;;;22.62;11.33;;;;;;;-3.05;72.30;100274.91;1808245;79;21220;-69
2020/12/12 09:19:39;;;;;;;18.42;10.40;;;;;;;-3.07;72.26;100277.53;1802273;78;21566;-71
2020/12/12 09:22:11;;;;;;;19.25;10.72;;;;;;;-3.07;72.32;100280.13;1795549;79;21109;-69
2020/12/12 09:24:40;;;;;;;19.98;11.43;;;;;;;-3.06;72.33;100283.10;1794125;78;21095;-70
2020/12/12 09:27:12;;;;;;;18.05;9.83;;;;;;;-3.06;72.37;100277.94;1808442;78;23010;-69
2020/12/12 09:29:39;;;;;;;19.77;10.35;;;;;;;-3.04;72.45;100272.73;1758679;81;21181;-69
2020/12/12 09:32:08;;;;;;;24.90;13.28;;;;;;;-3.02;72.41;100278.70;1750339;82;21141;-69
2020/12/12 09:34:37;;;;;;;24.90;14.18;;;;;;;-3.05;72.37;100269.74;1748495;80;21148;-70
2020/12/12 09:37:06;;;;;;;28.65;13.60;;;;;;;-3.06;72.42;100259.01;1737257;82;21100;-69
2020/12/12 09:39:35;;;;;;;18.75;10.35;;;;;;;-3.04;72.49;100259.81;1746229;82;22144;-69
2020/12/12 09:42:03;;;;;;;21.52;11.93;;;;;;;-3.01;72.54;100255.40;1730166;81;21307;-69
2020/12/12 09:44:32;;;;;;;26.97;13.45;;;;;;;-3.00;72.53;100241.59;1723477;83;21506;-69
2020/12/12 09:47:00;;;;;;;22.40;12.05;;;;;;;-2.97;72.60;100236.80;1750173;82;21140;-69
2020/12/12 09:49:29;;;;;;;26.65;13.50;;;;;;;-2.95;72.62;100240.19;1749981;80;21072;-70
2020/12/12 09:51:57;;;;;;;16.07;9.33;;;;;;;-2.94;72.60;100250.48;1758845;80;22064;-70
2020/12/12 09:54:25;;;;;;;25.50;12.63;;;;;;;-2.92;72.62;100240.95;1744733;82;21112;-71
2020/12/12 09:56:53;;;;;;;17.50;9.48;;;;;;;-2.91;72.60;100234.04;1750155;82;21357;-70
2020/12/12 09:59:21;;;;;;;25.05;12.85;;;;;;;-2.86;72.64;100233.94;1750490;82;21353;-70
2020/12/12 10:01:49;;;;;;;21.95;10.43;;;;;;;-2.82;72.60;100229.07;1740805;80;21176;-69
2020/12/12 10:04:18;;;;;;;20.97;10.85;;;;;;;-2.82;72.49;100220.88;1750541;82;22884;-69
2020/12/12 10:06:47;;;;;;;19.92;11.85;;;;;;;-2.82;72.43;100210.98;1749756;82;21196;-69
2020/12/12 10:09:17;;;;;;;19.50;11.18;;;;;;;-2.81;72.43;100213.97;1758854;80;21165;-68
2020/12/12 10:11:50;;;;;;;25.35;12.98;;;;;;;-2.78;72.41;100209.58;1737321;81;21078;-68
2020/12/12 10:14:18;;;;;;;26.17;13.57;;;;;;;-2.77;72.36;100207.84;1739199;81;21152;-68
2020/12/12 10:16:46;;;;;;;22.67;12.30;;;;;;;-2.76;72.38;100209.09;1739190;82;22069;-68
2020/12/12 10:19:15;;;;;;;21.07;11.57;;;;;;;-2.73;72.38;100212.02;1763166;80;22590;-69
2020/12/12 10:21:43;;;;;;;21.45;11.68;;;;;;;-2.70;72.38;100210.22;1753609;81;21360;-72
2020/12/12 10:24:14;;;;;;;23.73;12.75;;;;;;;-2.68;72.32;100201.97;1726039;83;21065;-70
2020/12/12 10:26:47;;;;;;;22.62;13.03;;;;;;;-2.67;72.23;100206.69;1728947;81;21084;-70
2020/12/12 10:29:15;;;;;;;23.75;11.85;;;;;;;-2.68;72.26;100203.71;1729617;81;23029;-73
2020/12/12 10:31:43;;;;;;;24.12;13.22;;;;;;;-2.68;72.27;100207.59;1754222;81;21064;-69
2020/12/12 10:34:11;;;;;;;21.85;11.90;;;;;;;-2.70;72.25;100208.05;1758170;81;21484;-68
2020/12/12 10:36:40;;;;;;;25.05;13.98;;;;;;;-2.73;72.30;100205.56;1757975;81;21578;-69
2020/12/12 10:39:09;;;;;;;25.35;11.93;;;;;;;-2.76;72.27;100197.90;1757272;80;21113;-70
2020/12/12 10:41:38;;;;;;;24.77;13.30;;;;;;;-2.76;72.24;100199.20;1728525;81;22130;-70
2020/12/12 10:44:07;;;;;;;23.38;12.82;;;;;;;-2.80;72.23;100203.58;1735637;81;21192;-69
2020/12/12 10:46:36;;;;;;;22.60;12.45;;;;;;;-2.81;72.24;100201.04;1738945;81;21509;-70
2020/12/12 10:49:05;;;;;;;23.35;12.18;;;;;;;-2.83;72.25;100192.05;1738609;82;21065;-71
2020/12/12 10:51:33;;;;;;;25.45;13.32;;;;;;;-2.82;72.32;100201.48;1752307;81;21067;-71
2020/12/12 10:54:02;;;;;;;28.27;13.40;;;;;;;-2.84;72.32;100199.84;1755142;81;22101;-70
2020/12/12 10:56:31;;;;;;;25.10;12.15;;;;;;;-2.84;72.34;100203.72;1752580;81;21110;-69
2020/12/12 10:58:59;;;;;;;22.95;13.38;;;;;;;-2.84;72.40;100198.11;1755668;80;21436;-69
2020/12/12 11:01:28;;;;;;;27.17;14.13;;;;;;;-2.83;72.46;100199.80;1755294;81;21127;-70
2020/12/12 11:03:58;;;;;;;24.15;12.07;;;;;;;-2.81;72.48;100198.01;1754333;81;21124;-69
2020/12/12 11:06:26;;;;;;;29.15;14.28;;;;;;;-2.82;72.58;100200.20;1755118;81;22191;-69
2020/12/12 11:08:55;;;;;;;29.05;14.43;;;;;;;-2.82;72.63;100200.64;1737283;81;21919;-70
2020/12/12 11:11:23;;;;;;;33.88;16.25;;;;;;;-2.83;72.72;100191.20;1721575;82;21446;-68
2020/12/12 11:13:53;;;;;;;28.20;14.98;;;;;;;-2.87;72.81;100189.59;1721601;82;21176;-69
2020/12/12 11:16:23;;;;;;;26.48;12.88;;;;;;;-2.85;72.88;100195.56;1738028;81;21172;-71
2020/12/12 11:18:53;;;;;;;30.37;14.78;;;;;;;-2.80;72.95;100197.56;1748919;80;21899;-71
2020/12/12 11:21:24;;;;;;;25.55;12.60;;;;;;;-2.78;72.95;100202.27;1734514;82;21132;-69
2020/12/12 11:23:52;;;;;;;26.15;12.93;;;;;;;-2.76;72.93;100207.80;1749347;82;21120;-69
2020/12/12 11:26:20;;;;;;;32.38;14.40;;;;;;;-2.77;72.91;100202.23;1742020;81;21154;-67